createdAt,value
2018-01-02T00:00:18.310Z,2.65
2018-01-02T00:01:18.298Z,2.59
2018-01-02T00:02:18.297Z,2.91
2018-01-02T00:03:18.285Z,4.31
2018-01-02T00:04:18.788Z,3.52
2018-01-02T00:05:18.270Z,3.88
2018-01-02T00:06:18.259Z,3.17
2018-01-02T00:07:18.251Z,3.85
2018-01-02T00:08:18.237Z,3.76
2018-01-02T00:09:18.238Z,3.82
2018-01-02T00:10:18.227Z,4.20
2018-01-02T00:11:18.217Z,4.61
2018-01-02T00:12:18.211Z,4.35
2018-01-02T00:13:18.204Z,3.76
2018-01-02T00:14:18.194Z,3.90
2018-01-02T00:15:18.184Z,4.60
2018-01-02T00:16:18.171Z,4.20
2018-01-02T00:17:18.170Z,3.74
2018-01-02T00:18:18.159Z,5.36
2018-01-02T00:19:18.153Z,7.62
2018-01-02T00:20:18.142Z,6.48
2018-01-02T00:21:18.133Z,6.10
2018-01-02T00:22:18.127Z,4.52
2018-01-02T00:23:18.118Z,5.37
2018-01-02T00:24:18.112Z,5.76
2018-01-02T00:25:18.109Z,5.81
2018-01-02T00:26:18.096Z,6.12
2018-01-02T00:27:18.114Z,6.42
2018-01-02T00:28:18.082Z,7.97
2018-01-02T00:29:18.070Z,7.02
2018-01-02T00:30:18.063Z,4.87
2018-01-02T00:31:18.064Z,6.35
2018-01-02T00:32:18.045Z,7.81
2018-01-02T00:33:18.793Z,8.39
2018-01-02T00:34:18.028Z,7.86
2018-01-02T00:35:18.021Z,11.01
2018-01-02T00:36:18.012Z,8.94
2018-01-02T00:37:18.006Z,8.31
2018-01-02T00:38:17.992Z,6.94
2018-01-02T00:39:17.987Z,7.83
2018-01-02T00:40:17.980Z,10.18
2018-01-02T00:41:17.972Z,11.11
2018-01-02T00:41:30.808Z,0.41
2018-01-02T00:43:17.970Z,8.26
2018-01-02T00:44:17.941Z,7.78
2018-01-02T00:45:17.938Z,7.67
2018-01-02T00:46:18.814Z,8.43
2018-01-02T00:47:17.926Z,8.38
2018-01-02T00:48:17.918Z,8.27
2018-01-02T00:49:17.906Z,8.36
2018-01-02T00:50:17.894Z,11.04
2018-01-02T00:51:17.883Z,9.69
2018-01-02T00:52:17.880Z,9.00
2018-01-02T00:53:18.801Z,9.67
2018-01-02T00:54:17.865Z,10.99
2018-01-02T00:55:17.857Z,9.85
2018-01-02T00:56:17.859Z,8.73
2018-01-02T00:57:17.836Z,8.34
2018-01-02T00:58:17.826Z,9.57
2018-01-02T00:59:17.834Z,8.49
2018-01-02T01:00:17.820Z,10.47
2018-01-02T01:01:17.822Z,10.31
2018-01-02T01:02:17.804Z,8.22
2018-01-02T01:03:17.798Z,8.21
2018-01-02T01:04:17.787Z,8.22
2018-01-02T01:05:17.776Z,10.63
2018-01-02T01:06:17.767Z,7.18
2018-01-02T01:07:17.762Z,8.51
2018-01-02T01:08:17.751Z,8.74
2018-01-02T01:09:17.748Z,8.84
2018-01-02T01:10:17.746Z,8.73
2018-01-02T01:11:17.730Z,7.57
2018-01-02T01:12:17.723Z,9.88
2018-01-02T01:13:17.716Z,7.08
2018-01-02T01:14:17.708Z,8.02
2018-01-02T01:15:17.703Z,8.64
2018-01-02T01:16:18.309Z,7.97
2018-01-02T01:17:17.679Z,7.74
2018-01-02T01:18:17.666Z,7.78
2018-01-02T01:19:17.669Z,10.30
2018-01-02T01:20:17.663Z,9.86
2018-01-02T01:21:17.652Z,7.60
2018-01-02T01:22:17.646Z,8.47
2018-01-02T01:23:17.642Z,9.70
2018-01-02T01:24:17.633Z,11.18
2018-01-02T01:25:17.619Z,9.50
2018-01-02T01:26:17.614Z,7.73
2018-01-02T01:27:17.611Z,7.44
2018-01-02T01:28:17.596Z,9.45
2018-01-02T01:29:18.313Z,10.25
2018-01-02T01:30:17.579Z,10.50
2018-01-02T01:31:17.576Z,10.63
2018-01-02T01:32:17.565Z,10.33
2018-01-02T01:33:17.557Z,8.47
2018-01-02T01:34:17.548Z,8.00
2018-01-02T01:35:17.543Z,9.90
2018-01-02T01:36:17.538Z,9.26
2018-01-02T01:37:17.529Z,11.71
2018-01-02T01:38:17.523Z,12.76
2018-01-02T01:39:17.516Z,11.73
2018-01-02T01:40:17.506Z,10.76
2018-01-02T01:41:17.503Z,13.72
2018-01-02T01:42:17.494Z,11.90
2018-01-02T01:43:17.483Z,8.79
2018-01-02T01:44:17.477Z,13.50
2018-01-02T01:45:17.465Z,10.89
2018-01-02T01:46:17.456Z,9.91
2018-01-02T01:46:29.459Z,0.36
2018-01-02T01:48:17.441Z,9.08
2018-01-02T01:49:17.432Z,8.68
2018-01-02T01:50:18.320Z,6.82
2018-01-02T01:51:18.330Z,10.07
2018-01-02T01:52:17.416Z,9.40
2018-01-02T01:53:17.401Z,7.68
2018-01-02T01:54:17.399Z,7.03
2018-01-02T01:55:17.389Z,7.46
2018-01-02T01:56:17.379Z,7.40
2018-01-02T01:57:18.327Z,7.68
2018-01-02T01:58:18.326Z,5.82
2018-01-02T01:59:17.362Z,10.18
2018-01-02T02:00:17.346Z,5.55
2018-01-02T02:01:17.338Z,7.23
2018-01-02T02:02:17.335Z,9.83
2018-01-02T02:03:17.323Z,8.94
2018-01-02T02:04:17.311Z,6.13
2018-01-02T02:05:17.314Z,8.09
2018-01-02T02:06:17.298Z,7.08
2018-01-02T02:07:17.294Z,8.00
2018-01-02T02:08:17.286Z,7.98
2018-01-02T02:09:17.283Z,6.67
2018-01-02T02:10:17.272Z,7.08
2018-01-02T02:11:17.270Z,8.66
2018-01-02T02:12:17.254Z,6.96
2018-01-02T02:13:17.248Z,7.22
2018-01-02T02:14:17.240Z,7.36
2018-01-02T02:15:17.233Z,9.29
2018-01-02T02:16:17.221Z,8.81
2018-01-02T02:17:17.212Z,8.82
2018-01-02T02:18:17.206Z,6.36
2018-01-02T02:19:17.196Z,7.50
2018-01-02T02:20:17.198Z,8.14
2018-01-02T02:21:17.187Z,8.36
2018-01-02T02:22:17.177Z,8.54
2018-01-02T02:23:17.162Z,8.62
2018-01-02T02:24:17.159Z,9.18
2018-01-02T02:25:17.152Z,7.79
2018-01-02T02:26:17.142Z,9.36
2018-01-02T02:27:17.143Z,7.99
2018-01-02T02:28:17.122Z,10.73
2018-01-02T02:29:17.119Z,11.06
2018-01-02T02:30:17.110Z,10.35
2018-01-02T02:31:17.105Z,9.59
2018-01-02T02:32:17.099Z,8.91
2018-01-02T02:33:17.092Z,8.32
2018-01-02T02:34:17.086Z,5.43
2018-01-02T02:35:17.076Z,8.30
2018-01-02T02:36:17.069Z,7.90
2018-01-02T02:37:17.060Z,9.16
2018-01-02T02:38:17.057Z,10.86
2018-01-02T02:39:17.054Z,9.75
2018-01-02T02:40:17.033Z,6.10
2018-01-02T02:41:17.020Z,9.72
2018-01-02T02:42:17.019Z,11.22
2018-01-02T02:43:17.011Z,8.70
2018-01-02T02:44:17.002Z,10.13
2018-01-02T02:45:16.997Z,10.72
2018-01-02T02:46:17.033Z,11.26
2018-01-02T02:47:16.986Z,10.66
2018-01-02T02:48:16.976Z,6.88
2018-01-02T02:49:16.969Z,9.19
2018-01-02T02:50:16.959Z,8.05
2018-01-02T02:51:16.956Z,7.76
2018-01-02T02:52:16.944Z,7.02
2018-01-02T02:53:16.942Z,7.38
2018-01-02T02:54:16.930Z,7.21
2018-01-02T02:55:16.923Z,10.38
2018-01-02T02:56:16.913Z,8.14
2018-01-02T02:57:16.901Z,10.21
2018-01-02T02:58:16.895Z,10.06
2018-01-02T02:59:16.893Z,7.98
2018-01-02T03:00:16.881Z,11.30
2018-01-02T03:01:16.871Z,12.22
2018-01-02T03:02:16.867Z,10.08
2018-01-02T03:03:16.858Z,11.40
2018-01-02T03:04:16.852Z,12.86
2018-01-02T03:05:16.846Z,11.13
2018-01-02T03:06:16.838Z,11.56
2018-01-02T03:07:16.834Z,10.44
2018-01-02T03:08:16.825Z,10.35
2018-01-02T03:09:16.809Z,10.76
2018-01-02T03:10:16.803Z,10.05
2018-01-02T03:11:16.801Z,9.74
2018-01-02T03:12:16.792Z,9.56
2018-01-02T03:13:16.783Z,12.58
2018-01-02T03:14:16.774Z,12.34
2018-01-02T03:15:16.767Z,11.46
2018-01-02T03:16:16.757Z,14.73
2018-01-02T03:17:16.761Z,13.22
2018-01-02T03:18:16.742Z,11.32
2018-01-02T03:19:16.734Z,11.83
2018-01-02T03:20:16.732Z,8.60
2018-01-02T03:21:16.722Z,7.72
2018-01-02T03:22:16.715Z,11.03
2018-01-02T03:23:16.710Z,9.70
2018-01-02T03:24:16.696Z,12.34
2018-01-02T03:25:16.689Z,11.97
2018-01-02T03:26:16.680Z,10.52
2018-01-02T03:27:16.676Z,11.93
2018-01-02T03:28:16.684Z,10.65
2018-01-02T03:29:16.662Z,9.18
2018-01-02T03:30:16.658Z,8.98
2018-01-02T03:31:16.659Z,9.88
2018-01-02T03:32:16.642Z,8.45
2018-01-02T03:33:16.631Z,13.27
2018-01-02T03:34:16.622Z,10.87
2018-01-02T03:35:16.619Z,9.80
2018-01-02T03:36:16.609Z,10.82
2018-01-02T03:37:16.600Z,10.02
2018-01-02T03:38:16.592Z,9.44
2018-01-02T03:39:16.586Z,11.20
2018-01-02T03:40:16.575Z,11.34
2018-01-02T03:41:16.568Z,8.58
2018-01-02T03:42:16.560Z,9.10
2018-01-02T03:43:16.561Z,12.34
2018-01-02T03:44:16.555Z,9.82
2018-01-02T03:45:16.543Z,9.38
2018-01-02T03:46:16.534Z,14.81
2018-01-02T03:47:16.528Z,11.72
2018-01-02T03:48:16.520Z,10.81
2018-01-02T03:49:16.513Z,9.58
2018-01-02T03:50:16.505Z,13.62
2018-01-02T03:51:16.505Z,14.83
2018-01-02T03:52:16.488Z,12.56
2018-01-02T03:53:16.477Z,15.41
2018-01-02T03:54:16.471Z,13.64
2018-01-02T03:55:16.460Z,18.50
2018-01-02T03:56:16.455Z,13.33
2018-01-02T03:57:16.447Z,12.62
2018-01-02T03:58:16.441Z,10.84
2018-01-02T03:59:16.434Z,9.40
2018-01-02T04:00:16.439Z,13.00
2018-01-02T04:01:16.417Z,9.63
2018-01-02T04:02:16.413Z,12.39
2018-01-02T04:03:16.406Z,10.82
2018-01-02T04:04:16.399Z,8.33
2018-01-02T04:05:16.389Z,11.11
2018-01-02T04:06:16.382Z,11.29
2018-01-02T04:07:16.377Z,8.30
2018-01-02T04:08:16.364Z,9.70
2018-01-02T04:09:16.355Z,11.02
2018-01-02T04:10:16.348Z,10.37
2018-01-02T04:11:16.344Z,9.65
2018-01-02T04:12:16.334Z,13.54
2018-01-02T04:12:28.333Z,0.52
2018-01-02T04:14:16.318Z,11.40
2018-01-02T04:15:16.313Z,10.54
2018-01-02T04:16:16.305Z,9.57
2018-01-02T04:17:16.298Z,8.62
2018-01-02T04:18:16.291Z,9.64
2018-01-02T04:19:16.287Z,7.82
2018-01-02T04:20:16.277Z,8.47
2018-01-02T04:21:16.272Z,12.27
2018-01-02T04:22:16.263Z,6.48
2018-01-02T04:23:16.255Z,8.73
2018-01-02T04:24:16.243Z,8.59
2018-01-02T04:25:16.247Z,9.75
2018-01-02T04:26:16.232Z,6.60
2018-01-02T04:27:16.223Z,6.71
2018-01-02T04:28:16.220Z,9.68
2018-01-02T04:29:16.205Z,7.92
2018-01-02T04:30:16.193Z,7.56
2018-01-02T04:31:16.194Z,6.74
2018-01-02T04:32:16.192Z,7.21
2018-01-02T04:33:16.179Z,7.44
2018-01-02T04:34:16.172Z,6.37
2018-01-02T04:35:16.166Z,7.47
2018-01-02T04:36:16.160Z,4.35
2018-01-02T04:37:16.150Z,5.09
2018-01-02T04:38:16.146Z,4.74
2018-01-02T04:39:16.136Z,5.98
2018-01-02T04:40:16.126Z,5.90
2018-01-02T04:41:16.117Z,5.70
2018-01-02T04:42:16.109Z,6.53
2018-01-02T04:43:16.101Z,4.20
2018-01-02T04:44:16.093Z,3.89
2018-01-02T04:45:16.086Z,6.14
2018-01-02T04:46:16.080Z,6.98
2018-01-02T04:47:16.070Z,3.71
2018-01-02T04:48:16.070Z,4.99
2018-01-02T04:49:16.060Z,4.04
2018-01-02T04:50:16.053Z,4.61
2018-01-02T04:51:16.052Z,4.90
2018-01-02T04:52:16.037Z,4.28
2018-01-02T04:53:16.027Z,3.96
2018-01-02T04:54:16.016Z,4.25
2018-01-02T04:55:16.027Z,5.77
2018-01-02T04:56:16.887Z,4.69
2018-01-02T04:57:15.995Z,3.65
2018-01-02T04:58:15.988Z,6.90
2018-01-02T04:59:15.981Z,3.04
2018-01-02T05:00:15.974Z,3.81
2018-01-02T05:01:15.965Z,4.42
2018-01-02T05:02:15.958Z,4.46
2018-01-02T05:03:15.952Z,3.68
2018-01-02T05:04:15.949Z,3.61
2018-01-02T05:05:15.939Z,3.89
2018-01-02T05:06:15.944Z,2.89
2018-01-02T05:07:15.930Z,3.91
2018-01-02T05:08:15.916Z,4.72
2018-01-02T05:09:15.903Z,4.34
2018-01-02T05:10:16.895Z,5.60
2018-01-02T05:11:15.895Z,5.77
2018-01-02T05:12:15.882Z,5.75
2018-01-02T05:13:15.875Z,5.90
2018-01-02T05:14:15.864Z,4.34
2018-01-02T05:15:15.861Z,4.59
2018-01-02T05:16:15.852Z,3.61
2018-01-02T05:17:15.842Z,4.88
2018-01-02T05:18:15.838Z,3.84
2018-01-02T05:19:15.830Z,4.32
2018-01-02T05:20:15.827Z,5.14
2018-01-02T05:21:15.816Z,4.08
2018-01-02T05:22:15.808Z,3.59
2018-01-02T05:23:15.802Z,4.32
2018-01-02T05:24:15.792Z,6.14
2018-01-02T05:25:15.785Z,4.56
2018-01-02T05:26:15.777Z,5.95
2018-01-02T05:27:15.773Z,4.01
2018-01-02T05:28:15.760Z,4.94
2018-01-02T05:29:15.750Z,3.96
2018-01-02T05:30:15.742Z,3.79
2018-01-02T05:31:15.747Z,6.27
2018-01-02T05:32:15.738Z,4.13
2018-01-02T05:33:15.722Z,6.32
2018-01-02T05:34:15.716Z,7.36
2018-01-02T05:35:15.710Z,5.84
2018-01-02T05:36:15.697Z,5.55
2018-01-02T05:37:15.687Z,4.81
2018-01-02T05:38:15.689Z,4.65
2018-01-02T05:39:15.678Z,5.10
2018-01-02T05:40:15.667Z,5.27
2018-01-02T05:41:15.658Z,7.36
2018-01-02T05:42:15.648Z,5.82
2018-01-02T05:43:15.648Z,5.67
2018-01-02T05:44:15.635Z,5.07
2018-01-02T05:45:15.628Z,5.09
2018-01-02T05:45:27.624Z,0.22
2018-01-02T05:47:15.615Z,6.40
2018-01-02T05:48:15.607Z,7.49
2018-01-02T05:49:15.609Z,5.80
2018-01-02T05:50:15.593Z,5.61
2018-01-02T05:51:15.584Z,7.09
2018-01-02T05:52:15.572Z,6.70
2018-01-02T05:53:15.563Z,6.89
2018-01-02T05:54:15.556Z,8.89
2018-01-02T05:55:15.543Z,7.49
2018-01-02T05:56:15.558Z,8.67
2018-01-02T05:57:15.538Z,9.19
2018-01-02T05:58:15.525Z,7.92
2018-01-02T05:59:15.521Z,9.34
2018-01-02T06:00:15.514Z,6.36
2018-01-02T06:01:15.498Z,8.84
2018-01-02T06:02:15.498Z,8.67
2018-01-02T06:03:15.484Z,9.09
2018-01-02T06:04:15.492Z,7.49
2018-01-02T06:05:15.475Z,8.00
2018-01-02T06:06:15.466Z,8.98
2018-01-02T06:07:15.458Z,9.70
2018-01-02T06:08:15.449Z,8.72
2018-01-02T06:09:15.437Z,11.14
2018-01-02T06:10:15.429Z,11.57
2018-01-02T06:11:15.439Z,9.87
2018-01-02T06:12:15.416Z,9.16
2018-01-02T06:13:15.406Z,9.09
2018-01-02T06:14:15.400Z,8.30
2018-01-02T06:15:15.393Z,8.84
2018-01-02T06:16:15.385Z,10.00
2018-01-02T06:17:15.915Z,9.54
2018-01-02T06:18:15.373Z,6.43
2018-01-02T06:19:15.371Z,7.74
2018-01-02T06:20:15.356Z,9.22
2018-01-02T06:21:15.348Z,9.04
2018-01-02T06:22:15.340Z,11.58
2018-01-02T06:23:15.325Z,12.32
2018-01-02T06:24:15.323Z,10.71
2018-01-02T06:25:15.313Z,10.85
2018-01-02T06:26:15.310Z,9.48
2018-01-02T06:27:15.301Z,11.87
2018-01-02T06:28:15.295Z,11.17
2018-01-02T06:29:15.281Z,10.18
2018-01-02T06:30:15.277Z,10.98
2018-01-02T06:31:15.277Z,10.91
2018-01-02T06:32:15.262Z,11.42
2018-01-02T06:33:15.256Z,12.52
2018-01-02T06:34:15.249Z,10.14
2018-01-02T06:35:15.236Z,9.77
2018-01-02T06:36:15.226Z,9.93
2018-01-02T06:37:15.209Z,8.06
2018-01-02T06:38:15.210Z,7.58
2018-01-02T06:39:15.206Z,9.12
2018-01-02T06:40:15.196Z,10.51
2018-01-02T06:41:15.192Z,7.73
2018-01-02T06:42:17.584Z,10.15
2018-01-02T06:43:15.191Z,8.53
2018-01-02T06:44:15.165Z,8.69
2018-01-02T06:45:15.157Z,7.21
2018-01-02T06:46:17.395Z,6.93
2018-01-02T06:47:15.146Z,8.48
2018-01-02T06:48:15.136Z,8.44
2018-01-02T06:49:15.117Z,8.28
2018-01-02T06:50:15.116Z,8.49
2018-01-02T06:51:15.105Z,8.78
2018-01-02T06:52:15.099Z,6.67
2018-01-02T06:53:15.090Z,6.62
2018-01-02T06:54:15.091Z,6.65
2018-01-02T06:55:15.082Z,7.91
2018-01-02T06:56:15.072Z,9.62
2018-01-02T06:57:15.064Z,6.57
2018-01-02T06:58:15.049Z,6.32
2018-01-02T06:59:15.054Z,7.15
2018-01-02T07:00:15.935Z,7.90
2018-01-02T07:01:37.328Z,8.88
2018-01-02T07:02:27.880Z,7.65
2018-01-02T07:03:27.827Z,7.00
2018-01-02T07:04:27.819Z,7.29
2018-01-02T07:05:27.851Z,7.00
2018-01-02T07:06:27.818Z,6.28
2018-01-02T07:07:27.798Z,7.16
2018-01-02T07:08:27.786Z,6.66
2018-01-02T07:09:27.779Z,9.34
2018-01-02T07:10:27.771Z,6.62
2018-01-02T07:11:27.772Z,7.38
2018-01-02T07:12:27.759Z,6.71
2018-01-02T07:13:27.746Z,5.92
2018-01-02T07:14:27.746Z,6.88
2018-01-02T07:15:27.735Z,7.26
2018-01-02T07:16:27.728Z,7.52
2018-01-02T07:17:27.719Z,7.73
2018-01-02T07:18:27.713Z,6.34
2018-01-02T07:19:27.704Z,11.32
2018-01-02T07:20:27.692Z,9.22
2018-01-02T07:21:27.682Z,9.28
2018-01-02T07:22:27.676Z,8.78
2018-01-02T07:23:27.668Z,11.31
2018-01-02T07:24:27.662Z,9.36
2018-01-02T07:25:27.653Z,12.19
2018-01-02T07:26:27.646Z,8.23
2018-01-02T07:27:27.643Z,10.14
2018-01-02T07:28:27.630Z,9.79
2018-01-02T07:29:27.632Z,9.65
2018-01-02T07:30:28.455Z,10.83
2018-01-02T07:31:27.610Z,11.66
2018-01-02T07:32:27.603Z,10.95
2018-01-02T07:33:27.595Z,13.67
2018-01-02T07:34:27.610Z,10.45
2018-01-02T07:35:27.574Z,11.05
2018-01-02T07:36:28.445Z,9.29
2018-01-02T07:37:27.559Z,11.36
2018-01-02T07:38:29.052Z,12.24
2018-01-02T07:39:27.548Z,11.34
2018-01-02T07:40:27.545Z,11.05
2018-01-02T07:41:27.522Z,14.45
2018-01-02T07:42:44.332Z,13.84
2018-01-02T07:43:27.516Z,11.43
2018-01-02T07:44:27.518Z,9.70
2018-01-02T07:45:27.499Z,11.75
2018-01-02T07:46:27.494Z,13.14
2018-01-02T07:47:27.484Z,7.59
2018-01-02T07:48:27.473Z,12.18
2018-01-02T07:49:57.279Z,15.32
2018-01-02T07:50:27.458Z,10.91
2018-01-02T07:51:27.459Z,9.91
2018-01-02T07:52:27.450Z,12.07
2018-01-02T07:53:27.439Z,12.53
2018-01-02T07:54:27.444Z,11.92
2018-01-02T07:55:27.425Z,10.36
2018-01-02T07:56:27.413Z,15.37
2018-01-02T07:57:27.405Z,8.29
2018-01-02T07:58:27.957Z,11.27
2018-01-02T07:59:27.389Z,11.72
2018-01-02T08:00:27.379Z,15.43
2018-01-02T08:01:27.372Z,12.68
2018-01-02T08:02:27.365Z,12.91
2018-01-02T08:03:27.356Z,14.34
2018-01-02T08:04:27.351Z,17.30
2018-01-02T08:05:27.342Z,15.84
2018-01-02T08:06:27.340Z,15.72
2018-01-02T08:07:27.327Z,10.34
2018-01-02T08:08:27.333Z,12.54
2018-01-02T08:09:27.316Z,14.07
2018-01-02T08:10:27.323Z,12.17
2018-01-02T08:11:27.298Z,13.67
2018-01-02T08:12:27.288Z,15.00
2018-01-02T08:13:27.313Z,16.52
2018-01-02T08:14:27.275Z,13.70
2018-01-02T08:15:27.262Z,14.59
2018-01-02T08:16:27.252Z,10.05
2018-01-02T08:17:27.251Z,13.97
2018-01-02T08:18:27.243Z,13.96
2018-01-02T08:19:27.237Z,12.76
2018-01-02T08:20:30.517Z,12.17
2018-01-02T08:21:27.234Z,16.14
2018-01-02T08:22:27.210Z,12.74
2018-01-02T08:23:27.206Z,16.00
2018-01-02T08:24:27.223Z,12.99
2018-01-02T08:25:27.213Z,10.94
2018-01-02T08:26:27.181Z,11.78
2018-01-02T08:27:27.172Z,10.01
2018-01-02T08:28:27.165Z,12.88
2018-01-02T08:29:27.156Z,13.56
2018-01-02T08:30:27.148Z,11.49
2018-01-02T08:31:27.142Z,12.92
2018-01-02T08:32:27.964Z,15.45
2018-01-02T08:33:27.124Z,11.76
2018-01-02T08:34:27.114Z,11.22
2018-01-02T08:35:27.105Z,14.95
2018-01-02T08:36:27.106Z,10.87
2018-01-02T08:37:27.088Z,12.03
2018-01-02T08:38:27.089Z,8.66
2018-01-02T08:39:27.081Z,12.63
2018-01-02T08:40:27.073Z,10.16
2018-01-02T08:41:27.072Z,9.55
2018-01-02T08:42:27.057Z,11.17
2018-01-02T08:43:27.045Z,10.68
2018-01-02T08:44:27.038Z,10.52
2018-01-02T08:45:27.030Z,11.19
2018-01-02T08:46:27.023Z,14.30
2018-01-02T08:47:27.020Z,10.48
2018-01-02T08:48:27.010Z,12.27
2018-01-02T08:49:27.005Z,12.31
2018-01-02T08:50:26.996Z,9.79
2018-01-02T08:51:26.987Z,11.75
2018-01-02T08:52:26.976Z,13.11
2018-01-02T08:53:26.984Z,13.47
2018-01-02T08:54:26.967Z,11.35
2018-01-02T08:55:26.959Z,15.66
2018-01-02T08:56:26.943Z,12.57
2018-01-02T08:56:38.952Z,0.53
2018-01-02T08:58:26.936Z,13.79
2018-01-02T08:59:26.929Z,10.26
2018-01-02T09:00:26.918Z,13.42
2018-01-02T09:01:26.909Z,13.85
2018-01-02T09:02:27.474Z,9.40
2018-01-02T09:03:26.900Z,14.04
2018-01-02T09:04:26.890Z,12.14
2018-01-02T09:05:26.894Z,12.50
2018-01-02T09:06:26.876Z,11.80
2018-01-02T09:07:26.866Z,15.42
2018-01-02T09:08:26.860Z,16.70
2018-01-02T09:11:49.963Z,12.93
2018-01-02T09:12:49.928Z,10.32
2018-01-02T09:15:34.336Z,12.42
2018-01-02T09:16:34.267Z,14.25
2018-01-02T09:17:34.270Z,10.95
2018-01-02T09:18:34.257Z,8.90
2018-01-02T09:19:34.238Z,12.57
2018-01-02T09:20:34.253Z,11.37
2018-01-02T09:21:34.237Z,9.19
2018-01-02T09:22:34.227Z,8.87
2018-01-02T09:23:34.223Z,13.68
2018-01-02T09:24:34.214Z,10.42
2018-01-02T09:25:34.206Z,9.34
2018-01-02T09:26:34.197Z,10.01
2018-01-02T09:27:34.186Z,12.28
2018-01-02T09:28:34.180Z,8.37
2018-01-02T09:29:34.186Z,8.50
2018-01-02T09:30:34.170Z,9.88
2018-01-02T09:31:34.172Z,10.13
2018-01-02T09:32:34.155Z,9.43
2018-01-02T09:33:34.145Z,9.92
2018-01-02T09:34:34.147Z,6.92
2018-01-02T09:35:34.129Z,7.74
2018-01-02T09:36:34.138Z,10.43
2018-01-02T09:37:34.128Z,8.89
2018-01-02T09:38:34.115Z,10.80
2018-01-02T09:39:34.108Z,10.51
2018-01-02T09:40:34.097Z,6.50
2018-01-02T09:41:34.091Z,9.53
2018-01-02T09:42:34.090Z,12.14
2018-01-02T09:43:34.076Z,11.00
2018-01-02T09:44:34.088Z,9.73
2018-01-02T09:45:34.062Z,9.17
2018-01-02T09:46:34.879Z,9.75
2018-01-02T09:47:34.046Z,12.66
2018-01-02T09:48:34.046Z,10.72
2018-01-02T09:49:34.037Z,8.80
2018-01-02T09:49:46.038Z,0.44
2018-01-02T09:51:34.021Z,12.04
2018-01-02T09:52:34.016Z,7.56
2018-01-02T09:53:34.008Z,8.66
2018-01-02T09:54:34.008Z,14.04
2018-01-02T09:55:33.995Z,11.22
2018-01-02T09:56:33.989Z,8.53
2018-01-02T09:57:33.977Z,10.23
2018-01-02T09:58:33.966Z,10.53
2018-01-02T09:59:33.966Z,9.57
2018-01-02T10:00:33.960Z,9.48
2018-01-02T10:01:33.951Z,13.16
2018-01-02T10:02:33.946Z,9.47
2018-01-02T10:03:33.942Z,9.80
2018-01-02T10:04:33.934Z,10.89
2018-01-02T10:05:34.875Z,12.64
2018-01-02T10:06:34.873Z,11.12
2018-01-02T10:07:33.916Z,9.07
2018-01-02T10:08:33.910Z,12.20
2018-01-02T10:09:33.902Z,10.39
2018-01-02T10:10:33.893Z,11.85
2018-01-02T10:11:33.888Z,9.89
2018-01-02T10:12:33.878Z,8.44
2018-01-02T10:13:33.870Z,11.14
2018-01-02T10:14:33.865Z,8.41
2018-01-02T10:15:33.861Z,11.06
2018-01-02T10:16:34.368Z,14.52
2018-01-02T10:17:33.844Z,10.24
2018-01-02T10:18:33.841Z,9.69
2018-01-02T10:19:33.835Z,11.06
2018-01-02T10:20:33.829Z,11.38
2018-01-02T10:21:33.840Z,11.88
2018-01-02T10:22:33.811Z,9.92
2018-01-02T10:23:33.809Z,12.71
2018-01-02T10:24:33.804Z,13.59
2018-01-02T10:25:33.831Z,11.55
2018-01-02T10:26:33.792Z,9.87
2018-01-02T10:27:34.396Z,10.22
2018-01-02T10:28:33.775Z,13.72
2018-01-02T10:29:33.762Z,11.22
2018-01-02T10:30:33.759Z,10.34
2018-01-02T10:31:33.753Z,8.32
2018-01-02T10:32:34.384Z,9.87
2018-01-02T10:33:33.744Z,13.30
2018-01-02T10:34:33.738Z,10.82
2018-01-02T10:35:33.728Z,10.22
2018-01-02T10:36:33.718Z,9.32
2018-01-02T10:37:33.720Z,10.67
2018-01-02T10:38:33.716Z,8.91
2018-01-02T10:39:33.705Z,9.91
2018-01-02T10:40:33.703Z,9.20
2018-01-02T10:41:33.693Z,9.63
2018-01-02T10:42:33.686Z,12.30
2018-01-02T10:43:33.682Z,8.64
2018-01-02T10:44:33.671Z,8.00
2018-01-02T10:45:33.663Z,7.24
2018-01-02T10:46:35.475Z,8.75
2018-01-02T10:47:35.537Z,9.72
2018-01-02T10:48:33.648Z,9.16
2018-01-02T10:49:33.632Z,10.70
2018-01-02T10:50:33.628Z,8.62
2018-01-02T10:51:33.636Z,8.89
2018-01-02T10:52:33.625Z,9.18
2018-01-02T10:53:33.611Z,12.59
2018-01-02T10:54:33.611Z,11.36
2018-01-02T10:55:33.628Z,8.93
2018-01-02T10:56:33.600Z,9.90
2018-01-02T10:57:33.591Z,10.79
2018-01-02T10:58:33.589Z,11.38
2018-01-02T10:59:33.578Z,11.84
2018-01-02T11:00:33.572Z,11.48
2018-01-02T11:01:33.560Z,10.44
2018-01-02T11:02:33.557Z,6.64
2018-01-02T11:03:35.034Z,9.69
2018-01-02T11:04:33.564Z,11.66
2018-01-02T11:05:33.541Z,12.76
2018-01-02T11:06:33.532Z,11.58
2018-01-02T11:07:33.536Z,7.97
2018-01-02T11:08:33.550Z,8.92
2018-01-02T11:09:33.515Z,10.15
2018-01-02T11:10:33.505Z,6.71
2018-01-02T11:11:33.501Z,8.11
2018-01-02T11:12:33.498Z,8.36
2018-01-02T11:13:33.490Z,6.12
2018-01-02T11:14:33.477Z,7.64
2018-01-02T11:15:33.471Z,8.70
2018-01-02T11:16:33.468Z,10.86
2018-01-02T11:17:33.461Z,8.44
2018-01-02T11:18:33.472Z,8.90
2018-01-02T11:19:33.449Z,9.30
2018-01-02T11:20:34.395Z,6.18
2018-01-02T11:21:33.438Z,7.86
2018-01-02T11:22:33.437Z,5.62
2018-01-02T11:23:33.423Z,8.14
2018-01-02T11:24:33.425Z,7.76
2018-01-02T11:25:33.413Z,5.66
2018-01-02T11:26:33.404Z,6.14
2018-01-02T11:27:33.400Z,6.85
2018-01-02T11:28:33.411Z,8.59
2018-01-02T11:29:33.396Z,7.84
2018-01-02T11:30:33.380Z,6.61
2018-01-02T11:31:33.374Z,9.94
2018-01-02T11:32:33.367Z,7.29
2018-01-02T11:33:33.359Z,6.13
2018-01-02T11:34:33.351Z,7.57
2018-01-02T11:35:33.357Z,8.01
2018-01-02T11:36:33.341Z,6.35
2018-01-02T11:37:33.336Z,7.18
2018-01-02T11:38:33.329Z,8.03
2018-01-02T11:39:33.320Z,9.05
2018-01-02T11:40:33.320Z,6.52
2018-01-02T11:41:33.314Z,6.62
2018-01-02T11:42:33.302Z,6.40
2018-01-02T11:43:33.305Z,7.90
2018-01-02T11:44:33.290Z,10.24
2018-01-02T11:45:33.917Z,7.94
2018-01-02T11:46:33.278Z,8.44
2018-01-02T11:47:33.271Z,10.18
2018-01-02T11:48:33.267Z,8.19
2018-01-02T11:49:33.261Z,7.90
2018-01-02T11:49:45.262Z,0.34
2018-01-02T11:51:33.250Z,7.84
2018-01-02T11:52:33.256Z,6.52
2018-01-02T11:53:33.264Z,7.20
2018-01-02T11:54:33.231Z,7.67
2018-01-02T11:55:33.238Z,7.54
2018-01-02T11:56:33.217Z,9.42
2018-01-02T11:57:33.200Z,9.47
2018-01-02T11:58:33.216Z,9.70
2018-01-02T11:59:33.194Z,6.72
2018-01-02T12:00:33.189Z,8.93
2018-01-02T12:01:33.182Z,8.24
2018-01-02T12:02:33.178Z,8.12
2018-01-02T12:03:33.170Z,8.20
2018-01-02T12:04:33.169Z,8.84
2018-01-02T12:05:33.158Z,9.68
2018-01-02T12:06:33.159Z,8.88
2018-01-02T12:07:33.149Z,8.01
2018-01-02T12:08:33.136Z,7.87
2018-01-02T12:09:33.142Z,7.52
2018-01-02T12:10:33.188Z,7.13
2018-01-02T12:11:33.126Z,8.53
2018-01-02T12:12:33.117Z,8.27
2018-01-02T12:13:33.115Z,6.73
2018-01-02T12:14:33.109Z,11.59
2018-01-02T12:15:33.094Z,5.66
2018-01-02T12:16:33.094Z,6.83
2018-01-02T12:17:33.088Z,9.56
2018-01-02T12:18:33.081Z,7.44
2018-01-02T12:19:33.075Z,11.60
2018-01-02T12:20:33.073Z,9.15
2018-01-02T12:21:33.097Z,7.41
2018-01-02T12:22:33.062Z,6.96
2018-01-02T12:23:33.053Z,7.26
2018-01-02T12:24:33.047Z,7.32
2018-01-02T12:25:33.037Z,8.62
2018-01-02T12:26:33.037Z,8.65
2018-01-02T12:27:33.031Z,6.52
2018-01-02T12:28:33.024Z,6.40
2018-01-02T12:29:33.016Z,7.42
2018-01-02T12:30:33.009Z,7.86
2018-01-02T12:31:33.004Z,8.72
2018-01-02T12:32:32.991Z,6.18
2018-01-02T12:33:33.932Z,5.18
2018-01-02T12:34:32.984Z,6.24
2018-01-02T12:35:32.977Z,9.05
2018-01-02T12:36:32.982Z,9.59
2018-01-02T12:37:32.977Z,6.96
2018-01-02T12:38:32.965Z,8.72
2018-01-02T12:39:32.958Z,6.89
2018-01-02T12:40:32.964Z,6.08
2018-01-02T12:41:33.938Z,6.35
2018-01-02T12:42:32.937Z,8.44
2018-01-02T12:43:32.936Z,10.33
2018-01-02T12:44:33.438Z,8.09
2018-01-02T12:45:32.924Z,9.35
2018-01-02T12:46:32.914Z,10.38
2018-01-02T12:47:32.912Z,9.35
2018-01-02T12:48:32.904Z,9.33
2018-01-02T12:49:32.896Z,9.43
2018-01-02T12:50:32.893Z,9.00
2018-01-02T12:51:32.890Z,9.24
2018-01-02T12:52:32.884Z,8.78
2018-01-02T12:53:32.874Z,8.38
2018-01-02T12:54:32.868Z,10.28
2018-01-02T12:55:32.898Z,6.91
2018-01-02T12:56:32.847Z,7.03
2018-01-02T12:57:32.846Z,6.71
2018-01-02T12:58:32.836Z,9.37
2018-01-02T12:59:32.847Z,7.37
2018-01-02T13:00:35.437Z,8.22
2018-01-02T13:01:32.837Z,9.98
2018-01-02T13:02:32.823Z,12.87
2018-01-02T13:03:32.819Z,9.45
2018-01-02T13:04:33.453Z,6.85
2018-01-02T13:05:32.807Z,7.64
2018-01-02T13:06:33.450Z,8.99
2018-01-02T13:07:32.795Z,7.71
2018-01-02T13:08:32.789Z,7.00
2018-01-02T13:09:32.781Z,7.80
2018-01-02T13:10:32.772Z,8.39
2018-01-02T13:11:32.767Z,5.70
2018-01-02T13:12:32.755Z,7.41
2018-01-02T13:13:32.755Z,8.20